<?xml version="1.0" encoding="UTF-8" standalone="no" ?>
<gpx xmlns="http://www.topografix.com/GPX/1/1" xmlns:xsi="http://www.w3.org/2001/XMLSchema-instance" xsi:schemaLocation="http://www.topografix.com/GPX/1/1 http://www.topografix.com/GPX/1/1/gpx.xsd" version="1.1" creator="VisuGPX - https://www.visugpx.com">
  <metadata>
    <name>Raid VTT IFV 2022 de l'enfer</name>
    <desc><![CDATA[Tracé du raid avec le découpage en segments de guidage individuels avec thème d'animation imposé]]></desc>
  </metadata>
  <trk>
    <name><![CDATA[J2 - RUN 7 - Thomas]]></name>
    <desc><![CDATA[Flore : les plantes médicinales de montagne ET/OU les étages de végétation en montagne]]></desc>
    <extensions>
      <line xmlns="http://www.topografix.com/GPX/gpx_style/0/2">
        <color>800040</color>
        <width>4</width>
        <dasharray>8</dasharray>
          <extensions>
            <sens>1</sens>
          </extensions>
      </line>
    </extensions>
    <trkseg>
      <trkpt lat="44.06535" lon="6.42978">
        <ele>1352</ele>
        <time>1990-12-07T08:46:21Z</time>
      </trkpt>
      <trkpt lat="44.06517" lon="6.4297">
        <ele>1355</ele>
        <time>1990-12-07T08:46:11Z</time>
      </trkpt>
      <trkpt lat="44.0652" lon="6.42972">
        <ele>1354</ele>
        <time>1990-12-07T08:43:52Z</time>
      </trkpt>
      <trkpt lat="44.0649" lon="6.42968">
        <ele>1349</ele>
        <time>1990-12-07T08:43:20Z</time>
      </trkpt>
      <trkpt lat="44.06467" lon="6.42963">
        <ele>1343</ele>
        <time>1990-12-07T08:42:48Z</time>
      </trkpt>
      <trkpt lat="44.06457" lon="6.42938">
        <ele>1337</ele>
        <time>1990-12-07T08:42:14Z</time>
      </trkpt>
      <trkpt lat="44.06438" lon="6.4294">
        <ele>1331</ele>
        <time>1990-12-07T08:41:42Z</time>
      </trkpt>
      <trkpt lat="44.06418" lon="6.42935">
        <ele>1326</ele>
        <time>1990-12-07T08:41:17Z</time>
      </trkpt>
      <trkpt lat="44.06408" lon="6.42917">
        <ele>1322</ele>
        <time>1990-12-07T08:40:58Z</time>
      </trkpt>
      <trkpt lat="44.06392" lon="6.42895">
        <ele>1318</ele>
        <time>1990-12-07T08:40:34Z</time>
      </trkpt>
      <trkpt lat="44.06377" lon="6.42867">
        <ele>1312</ele>
        <time>1990-12-07T08:40:02Z</time>
      </trkpt>
      <trkpt lat="44.06375" lon="6.4285">
        <ele>1308</ele>
        <time>1990-12-07T08:39:46Z</time>
      </trkpt>
      <trkpt lat="44.06378" lon="6.42845">
        <ele>1308</ele>
        <time>1990-12-07T08:39:34Z</time>
      </trkpt>
      <trkpt lat="44.06353" lon="6.42843">
        <ele>1305</ele>
        <time>1990-12-07T08:39:19Z</time>
      </trkpt>
      <trkpt lat="44.06297" lon="6.42835">
        <ele>1301</ele>
        <time>1990-12-07T08:38:51Z</time>
      </trkpt>
      <trkpt lat="44.06238" lon="6.42827">
        <ele>1296</ele>
        <time>1990-12-07T08:38:22Z</time>
      </trkpt>
      <trkpt lat="44.06192" lon="6.4282">
        <ele>1292</ele>
        <time>1990-12-07T08:37:57Z</time>
      </trkpt>
      <trkpt lat="44.0613" lon="6.42827">
        <ele>1290</ele>
        <time>1990-12-07T08:37:28Z</time>
      </trkpt>
      <trkpt lat="44.06095" lon="6.42828">
        <ele>1287</ele>
        <time>1990-12-07T08:37:12Z</time>
      </trkpt>
      <trkpt lat="44.06083" lon="6.42823">
        <ele>1287</ele>
        <time>1990-12-07T08:37:06Z</time>
      </trkpt>
      <trkpt lat="44.06053" lon="6.42828">
        <ele>1284</ele>
        <time>1990-12-07T08:36:47Z</time>
      </trkpt>
      <trkpt lat="44.06003" lon="6.42835">
        <ele>1280</ele>
        <time>1990-12-07T08:36:24Z</time>
      </trkpt>
      <trkpt lat="44.05938" lon="6.42825">
        <ele>1279</ele>
        <time>1990-12-07T08:36:02Z</time>
      </trkpt>
      <trkpt lat="44.05858" lon="6.42803">
        <ele>1280</ele>
        <time>1990-12-07T08:35:41Z</time>
      </trkpt>
      <trkpt lat="44.05802" lon="6.42795">
        <ele>1284</ele>
        <time>1990-12-07T08:35:26Z</time>
      </trkpt>
      <trkpt lat="44.05737" lon="6.42787">
        <ele>1285</ele>
        <time>1990-12-07T08:35:00Z</time>
      </trkpt>
      <trkpt lat="44.05687" lon="6.4277">
        <ele>1283</ele>
        <time>1990-12-07T08:34:36Z</time>
      </trkpt>
      <trkpt lat="44.05642" lon="6.42757">
        <ele>1281</ele>
        <time>1990-12-07T08:34:13Z</time>
      </trkpt>
      <trkpt lat="44.05618" lon="6.42757">
        <ele>1280</ele>
        <time>1990-12-07T08:34:02Z</time>
      </trkpt>
      <trkpt lat="44.05575" lon="6.42727">
        <ele>1277</ele>
        <time>1990-12-07T08:33:38Z</time>
      </trkpt>
      <trkpt lat="44.05525" lon="6.42703">
        <ele>1273</ele>
        <time>1990-12-07T08:33:13Z</time>
      </trkpt>
      <trkpt lat="44.05468" lon="6.42703">
        <ele>1269</ele>
        <time>1990-12-07T08:32:46Z</time>
      </trkpt>
      <trkpt lat="44.0544" lon="6.42698">
        <ele>1266</ele>
        <time>1990-12-07T08:27:55Z</time>
      </trkpt>
      <trkpt lat="44.05433" lon="6.42693">
        <ele>1266</ele>
        <time>1990-12-07T08:27:37Z</time>
      </trkpt>
      <trkpt lat="44.0549" lon="6.42625">
        <ele>1262</ele>
        <time>1990-12-07T08:27:09Z</time>
      </trkpt>
      <trkpt lat="44.0556" lon="6.42608">
        <ele>1256</ele>
        <time>1990-12-07T08:26:45Z</time>
      </trkpt>
      <trkpt lat="44.0561" lon="6.42678">
        <ele>1250</ele>
        <time>1990-12-07T08:26:23Z</time>
      </trkpt>
      <trkpt lat="44.05685" lon="6.42693">
        <ele>1245</ele>
        <time>1990-12-07T08:25:58Z</time>
      </trkpt>
      <trkpt lat="44.05732" lon="6.42698">
        <ele>1240</ele>
        <time>1990-12-07T08:25:43Z</time>
      </trkpt>
      <trkpt lat="44.05808" lon="6.42682">
        <ele>1234</ele>
        <time>1990-12-07T08:25:18Z</time>
      </trkpt>
      <trkpt lat="44.05857" lon="6.42675">
        <ele>1231</ele>
        <time>1990-12-07T08:25:02Z</time>
      </trkpt>
      <trkpt lat="44.05938" lon="6.42652">
        <ele>1226</ele>
        <time>1990-12-07T08:24:36Z</time>
      </trkpt>
      <trkpt lat="44.06015" lon="6.42655">
        <ele>1220</ele>
        <time>1990-12-07T08:24:11Z</time>
      </trkpt>
      <trkpt lat="44.06077" lon="6.42592">
        <ele>1214</ele>
        <time>1990-12-07T08:23:45Z</time>
      </trkpt>
      <trkpt lat="44.0615" lon="6.4255">
        <ele>1208</ele>
        <time>1990-12-07T08:23:19Z</time>
      </trkpt>
      <trkpt lat="44.06228" lon="6.42533">
        <ele>1202</ele>
        <time>1990-12-07T08:22:52Z</time>
      </trkpt>
      <trkpt lat="44.063" lon="6.42505">
        <ele>1196</ele>
        <time>1990-12-07T08:22:26Z</time>
      </trkpt>
      <trkpt lat="44.0636" lon="6.42445">
        <ele>1190</ele>
        <time>1990-12-07T08:22:00Z</time>
      </trkpt>
      <trkpt lat="44.06398" lon="6.42353">
        <ele>1184</ele>
        <time>1990-12-07T08:21:34Z</time>
      </trkpt>
      <trkpt lat="44.06468" lon="6.4232">
        <ele>1178</ele>
        <time>1990-12-07T08:21:09Z</time>
      </trkpt>
      <trkpt lat="44.06522" lon="6.4224">
        <ele>1172</ele>
        <time>1990-12-07T08:20:42Z</time>
      </trkpt>
      <trkpt lat="44.06548" lon="6.42143">
        <ele>1166</ele>
        <time>1990-12-07T08:20:14Z</time>
      </trkpt>
      <trkpt lat="44.0663" lon="6.42088">
        <ele>1159</ele>
        <time>1990-12-07T08:19:44Z</time>
      </trkpt>
      <trkpt lat="44.06697" lon="6.42003">
        <ele>1153</ele>
        <time>1990-12-07T08:19:12Z</time>
      </trkpt>
      <trkpt lat="44.0675" lon="6.41922">
        <ele>1147</ele>
        <time>1990-12-07T08:18:45Z</time>
      </trkpt>
      <trkpt lat="44.0677" lon="6.41845">
        <ele>1142</ele>
        <time>1990-12-07T08:18:18Z</time>
      </trkpt>
      <trkpt lat="44.06697" lon="6.41855">
        <ele>1136</ele>
        <time>1990-12-07T08:17:51Z</time>
      </trkpt>
      <trkpt lat="44.06608" lon="6.41857">
        <ele>1130</ele>
        <time>1990-12-07T08:17:22Z</time>
      </trkpt>
      <trkpt lat="44.06532" lon="6.41912">
        <ele>1123</ele>
        <time>1990-12-07T08:16:54Z</time>
      </trkpt>
      <trkpt lat="44.06442" lon="6.41963">
        <ele>1120</ele>
        <time>1990-12-07T08:16:28Z</time>
      </trkpt>
      <trkpt lat="44.06397" lon="6.4204">
        <ele>1118</ele>
        <time>1990-12-07T08:16:06Z</time>
      </trkpt>
      <trkpt lat="44.06398" lon="6.41993">
        <ele>1115</ele>
        <time>1990-12-07T08:15:52Z</time>
      </trkpt>
      <trkpt lat="44.06433" lon="6.41898">
        <ele>1109</ele>
        <time>1990-12-07T08:15:26Z</time>
      </trkpt>
      <trkpt lat="44.06475" lon="6.41813">
        <ele>1104</ele>
        <time>1990-12-07T08:15:00Z</time>
      </trkpt>
      <trkpt lat="44.06515" lon="6.41717">
        <ele>1097</ele>
        <time>1990-12-07T08:14:31Z</time>
      </trkpt>
      <trkpt lat="44.06558" lon="6.4162">
        <ele>1091</ele>
        <time>1990-12-07T08:14:02Z</time>
      </trkpt>
      <trkpt lat="44.0662" lon="6.41592">
        <ele>1086</ele>
        <time>1990-12-07T08:13:34Z</time>
      </trkpt>
      <trkpt lat="44.06688" lon="6.41568">
        <ele>1080</ele>
        <time>1990-12-07T08:13:06Z</time>
      </trkpt>
      <trkpt lat="44.06703" lon="6.415">
        <ele>1075</ele>
        <time>1990-12-07T08:12:41Z</time>
      </trkpt>
      <trkpt lat="44.06773" lon="6.41498">
        <ele>1071</ele>
        <time>1990-12-07T08:12:13Z</time>
      </trkpt>
      <trkpt lat="44.06812" lon="6.41502">
        <ele>1067</ele>
        <time>1990-12-07T08:11:55Z</time>
      </trkpt>
      <trkpt lat="44.0685" lon="6.41538">
        <ele>1062</ele>
        <time>1990-12-07T08:11:29Z</time>
      </trkpt>
      <trkpt lat="44.0689" lon="6.41505">
        <ele>1059</ele>
        <time>1990-12-07T08:11:11Z</time>
      </trkpt>
      <trkpt lat="44.06957" lon="6.41533">
        <ele>1056</ele>
        <time>1990-12-07T08:10:47Z</time>
      </trkpt>
      <trkpt lat="44.06985" lon="6.41488">
        <ele>1056</ele>
        <time>1990-12-07T08:10:36Z</time>
      </trkpt>
      <trkpt lat="44.06992" lon="6.41465">
        <ele>1056</ele>
        <time>1990-12-07T08:10:32Z</time>
      </trkpt>
      <trkpt lat="44.07037" lon="6.41368">
        <ele>1058</ele>
        <time>1990-12-07T08:10:11Z</time>
      </trkpt>
      <trkpt lat="44.07078" lon="6.41342">
        <ele>1059</ele>
        <time>1990-12-07T08:09:58Z</time>
      </trkpt>
      <trkpt lat="44.07095" lon="6.41257">
        <ele>1059</ele>
        <time>1990-12-07T08:09:32Z</time>
      </trkpt>
      <trkpt lat="44.07082" lon="6.4118">
        <ele>1057</ele>
        <time>1990-12-07T08:09:09Z</time>
      </trkpt>
      <trkpt lat="44.0702" lon="6.41168">
        <ele>1056</ele>
        <time>1990-12-07T08:08:42Z</time>
      </trkpt>
      <trkpt lat="44.0701" lon="6.41162">
        <ele>1055</ele>
        <time>1990-12-07T08:08:24Z</time>
      </trkpt>
      <trkpt lat="44.07033" lon="6.41198">
        <ele>1051</ele>
        <time>1990-12-07T08:08:09Z</time>
      </trkpt>
      <trkpt lat="44.07037" lon="6.41267">
        <ele>1047</ele>
        <time>1990-12-07T08:07:46Z</time>
      </trkpt>
      <trkpt lat="44.06985" lon="6.41255">
        <ele>1041</ele>
        <time>1990-12-07T08:07:20Z</time>
      </trkpt>
      <trkpt lat="44.06932" lon="6.4124">
        <ele>1035</ele>
        <time>1990-12-07T08:06:55Z</time>
      </trkpt>
      <trkpt lat="44.06903" lon="6.4124">
        <ele>1034</ele>
        <time>1990-12-07T08:06:42Z</time>
      </trkpt>
      <trkpt lat="44.0685" lon="6.41228">
        <ele>1028</ele>
        <time>1990-12-07T08:06:15Z</time>
      </trkpt>
      <trkpt lat="44.06807" lon="6.41202">
        <ele>1023</ele>
        <time>1990-12-07T08:05:52Z</time>
      </trkpt>
      <trkpt lat="44.06785" lon="6.4119">
        <ele>1021</ele>
        <time>1990-12-07T08:05:42Z</time>
      </trkpt>
      <trkpt lat="44.06758" lon="6.41168">
        <ele>1019</ele>
        <time>1990-12-07T08:05:31Z</time>
      </trkpt>
      <trkpt lat="44.06712" lon="6.4113">
        <ele>1014</ele>
        <time>1990-12-07T08:05:09Z</time>
      </trkpt>
      <trkpt lat="44.06668" lon="6.41063">
        <ele>1009</ele>
        <time>1990-12-07T08:04:41Z</time>
      </trkpt>
      <trkpt lat="44.06607" lon="6.41033">
        <ele>1005</ele>
        <time>1990-12-07T08:04:16Z</time>
      </trkpt>
      <trkpt lat="44.06555" lon="6.41013">
        <ele>1001</ele>
        <time>1990-12-07T08:03:56Z</time>
      </trkpt>
      <trkpt lat="44.06498" lon="6.40967">
        <ele>997</ele>
        <time>1990-12-07T08:03:30Z</time>
      </trkpt>
      <trkpt lat="44.06452" lon="6.40905">
        <ele>992</ele>
        <time>1990-12-07T08:03:03Z</time>
      </trkpt>
      <trkpt lat="44.06423" lon="6.40875">
        <ele>989</ele>
        <time>1990-12-07T08:02:41Z</time>
      </trkpt>
      <trkpt lat="44.06387" lon="6.40892">
        <ele>992</ele>
        <time>1990-12-07T08:02:23Z</time>
      </trkpt>
      <trkpt lat="44.06363" lon="6.40888">
        <ele>992</ele>
        <time>1990-12-07T08:02:12Z</time>
      </trkpt>
      <trkpt lat="44.06315" lon="6.40877">
        <ele>992</ele>
        <time>1990-12-07T08:01:52Z</time>
      </trkpt>
      <trkpt lat="44.06292" lon="6.40855">
        <ele>991</ele>
        <time>1990-12-07T08:01:37Z</time>
      </trkpt>
      <trkpt lat="44.06285" lon="6.4077">
        <ele>985</ele>
        <time>1990-12-07T08:01:10Z</time>
      </trkpt>
      <trkpt lat="44.06317" lon="6.40697">
        <ele>981</ele>
        <time>1990-12-07T08:00:43Z</time>
      </trkpt>
      <trkpt lat="44.06337" lon="6.40662">
        <ele>980</ele>
        <time>1990-12-07T08:00:29Z</time>
      </trkpt>
      <trkpt lat="44.0633" lon="6.40572">
        <ele>978</ele>
        <time>1990-12-07T08:00:08Z</time>
      </trkpt>
      <trkpt lat="44.06315" lon="6.4045">
        <ele>973</ele>
        <time>1990-12-07T07:59:40Z</time>
      </trkpt>
      <trkpt lat="44.06275" lon="6.4035">
        <ele>969</ele>
        <time>1990-12-07T07:59:13Z</time>
      </trkpt>
      <trkpt lat="44.06252" lon="6.40212">
        <ele>964</ele>
        <time>1990-12-07T07:58:43Z</time>
      </trkpt>
      <trkpt lat="44.06255" lon="6.40168">
        <ele>962</ele>
        <time>1990-12-07T07:58:31Z</time>
      </trkpt>
      <trkpt lat="44.06267" lon="6.40095">
        <ele>960</ele>
        <time>1990-12-07T07:58:05Z</time>
      </trkpt>
      <trkpt lat="44.0629" lon="6.39973">
        <ele>956</ele>
        <time>1990-12-07T07:57:38Z</time>
      </trkpt>
      <trkpt lat="44.06317" lon="6.39872">
        <ele>953</ele>
        <time>1990-12-07T07:57:12Z</time>
      </trkpt>
      <trkpt lat="44.06318" lon="6.39748">
        <ele>950</ele>
        <time>1990-12-07T07:56:43Z</time>
      </trkpt>
      <trkpt lat="44.06333" lon="6.3964">
        <ele>948</ele>
        <time>1990-12-07T07:56:17Z</time>
      </trkpt>
      <trkpt lat="44.06377" lon="6.39528">
        <ele>944</ele>
        <time>1990-12-07T07:55:52Z</time>
      </trkpt>
      <trkpt lat="44.06438" lon="6.39523">
        <ele>943</ele>
        <time>1990-12-07T07:55:39Z</time>
      </trkpt>
      <trkpt lat="44.06483" lon="6.39512">
        <ele>945</ele>
        <time>1990-12-07T07:55:26Z</time>
      </trkpt>
      <trkpt lat="44.06502" lon="6.39433">
        <ele>942</ele>
        <time>1990-12-07T07:55:02Z</time>
      </trkpt>
      <trkpt lat="44.06515" lon="6.39353">
        <ele>941</ele>
        <time>1990-12-07T07:54:45Z</time>
      </trkpt>
      <trkpt lat="44.06538" lon="6.39297">
        <ele>941</ele>
        <time>1990-12-07T07:54:36Z</time>
      </trkpt>
      <trkpt lat="44.06592" lon="6.39168">
        <ele>941</ele>
        <time>1990-12-07T07:54:21Z</time>
      </trkpt>
      <trkpt lat="44.06613" lon="6.39093">
        <ele>946</ele>
        <time>1990-12-07T07:54:13Z</time>
      </trkpt>
      <trkpt lat="44.06643" lon="6.39058">
        <ele>947</ele>
        <time>1990-12-07T07:54:07Z</time>
      </trkpt>
      <trkpt lat="44.06717" lon="6.38965">
        <ele>950</ele>
        <time>1990-12-07T07:53:49Z</time>
      </trkpt>
      <trkpt lat="44.0668" lon="6.38948">
        <ele>952</ele>
        <time>1990-12-07T07:53:35Z</time>
      </trkpt>
      <trkpt lat="44.06705" lon="6.38937">
        <ele>956</ele>
        <time>1990-12-07T07:53:26Z</time>
      </trkpt>
      <trkpt lat="44.0668" lon="6.38903">
        <ele>956</ele>
        <time>1990-12-07T07:53:11Z</time>
      </trkpt>
      <trkpt lat="44.06677" lon="6.38902">
        <ele>956</ele>
        <time>1990-12-07T07:50:21Z</time>
      </trkpt>
      <trkpt lat="44.06683" lon="6.38908">
        <ele>956</ele>
        <time>1990-12-07T07:49:01Z</time>
      </trkpt>
      <trkpt lat="44.06683" lon="6.38913">
        <ele>962</ele>
        <time>1990-12-06T19:49:08Z</time>
      </trkpt>
      <trkpt lat="44.06685" lon="6.38872">
        <ele>960</ele>
        <time>1990-12-06T19:48:51Z</time>
      </trkpt>
      <trkpt lat="44.06727" lon="6.3882">
        <ele>963</ele>
        <time>1990-12-06T19:48:40Z</time>
      </trkpt>
      <trkpt lat="44.06753" lon="6.38772">
        <ele>966</ele>
        <time>1990-12-06T19:48:31Z</time>
      </trkpt>
      <trkpt lat="44.06783" lon="6.38708">
        <ele>965</ele>
        <time>1990-12-06T19:48:15Z</time>
      </trkpt>
      <trkpt lat="44.06817" lon="6.38733">
        <ele>966</ele>
        <time>1990-12-06T19:48:06Z</time>
      </trkpt>
      <trkpt lat="44.06915" lon="6.38762">
        <ele>968</ele>
        <time>1990-12-06T19:47:47Z</time>
      </trkpt>
      <trkpt lat="44.06948" lon="6.3875">
        <ele>969</ele>
        <time>1990-12-06T19:47:39Z</time>
      </trkpt>
      <trkpt lat="44.06988" lon="6.3872">
        <ele>971</ele>
        <time>1990-12-06T19:47:15Z</time>
      </trkpt>
    </trkseg>
  </trk>
</gpx>